Latest Coastal Weather Observations for Cato Island

IDQ60701

Issued at 8:22 pm EST Friday 26 August 2016 (issued every 10 minutes, with the page automatically refreshed every 10 minutes)

About coastal observations | Map of coastal stations | Coastal observations for QLD | Marine services | Other Formats
Station Details ID: 200601 Name: CATO ISLAND Lat: -23.25 Lon: 155.54 Height: 6.3 m
Data from the previous 72 hours. | See also: Recent months for locations in Queensland
Date/Time
EST
Temp
°C
Wind Pressure Rain since
9am
mm
Weather Cloud Vis
km
Sea
Height
m
Swell
Dir  Spd
kts
Gust
kts
hPa Trend Height
m
Period
s
Dir
26/08:00pm 17.9 NE 4 6 1016.2 - - - - - - - - -
26/07:30pm 17.7 NNE 2 4 1016.1 - - - - - - - - -
26/07:00pm 17.7 N 2 5 1015.7 - - - - - - - - -
26/06:30pm 17.6 NNE 4 6 1015.6 - - - - - - - - -
26/06:00pm 17.7 N 7 10 1015.4 - - - - - - - - -
26/05:30pm 17.8 NE 5 6 1014.8 - - - - - - - - -
26/05:00pm 17.9 N 5 9 1014.6 - - - - - - - - -
26/04:30pm 18.0 N 7 9 1014.7 - - - - - - - - -
26/04:00pm 18.1 SW 3 5 1013.6 - - - - - - - - -
26/03:30pm 18.1 NNW 5 6 1014.2 - - - - - - - - -
26/03:00pm 18.6 NNW 6 8 1013.6 - - - - - - - - -
26/02:30pm 18.5 NNW 10 11 1013.8 - - - - - - - - -
26/02:00pm 18.3 WNW 5 7 1013.3 - - - - - - - - -
26/01:30pm 18.1 NNW 10 14 1014.0 - - - - - - - - -
26/01:00pm 18.3 N 7 11 1013.8 - - - - - - - - -
26/12:30pm 18.4 N 11 14 1014.6 - - - - - - - - -
26/12:00pm 18.4 N 8 9 1014.9 - - - - - - - - -
26/11:30am 18.3 N 8 12 1015.0 - - - - - - - - -
26/11:00am 18.5 N 9 11 1016.2 - - - - - - - - -
26/10:30am 18.6 NE 7 9 1016.0 - - - - - - - - -
26/10:00am 18.8 ENE 7 9 1016.1 - - - - - - - - -
26/09:30am 18.7 ENE 7 8 1016.5 - - - - - - - - -
26/09:00am 18.8 ESE 7 8 1015.9 - - - - - - - - -
26/08:30am 18.7 SSE 6 9 1016.5 - - - - - - - - -
26/08:00am 18.4 SE 5 8 1016.5 - - - - - - - - -
26/07:30am 18.4 SSE 8 9 1016.0 - - - - - - - - -
26/07:00am 18.2 S 7 11 1016.1 - - - - - - - - -
26/06:30am 18.0 S 10 11 1015.2 - - - - - - - - -
26/06:00am 17.8 S 11 13 1015.0 - - - - - - - - -
26/05:30am 18.0 SSW 11 13 1014.9 - - - - - - - - -
26/05:00am 17.9 WSW 10 12 1014.7 - - - - - - - - -
26/04:30am 18.2 W 10 13 1014.4 - - - - - - - - -
26/04:00am 18.3 W 10 13 1014.2 - - - - - - - - -
26/03:30am 18.8 NW 10 12 1013.7 - - - - - - - - -
26/03:00am 18.6 NW 9 11 1013.7 - - - - - - - - -
26/02:30am 18.7 NW 8 10 1013.9 - - - - - - - - -
26/02:00am 18.5 WNW 7 10 1014.1 - - - - - - - - -
26/01:30am 18.7 NW 7 9 1014.1 - - - - - - - - -
26/01:00am 18.8 NW 7 10 1014.4 - - - - - - - - -
26/12:30am 18.9 NW 8 11 1014.6 - - - - - - - - -
26/12:00am 18.9 NW 9 11 1014.8 - - - - - - - - -
 
Date/Time
EST
Temp
°C
Wind Pressure Rain since
9am
mm
Weather Cloud Vis
km
Sea
Height
m
Swell
Dir  Spd
kts
Gust
kts
hPa Trend Height
m
Period
s
Dir
25/11:30pm 19.4 N 9 11 1015.0 - - - - - - - - -
25/11:00pm 19.2 NNE 6 8 1014.7 - - - - - - - - -
25/10:30pm 18.8 NE 5 6 1015.0 - - - - - - - - -
25/10:00pm 18.6 ENE 5 6 1015.0 - - - - - - - - -
25/09:30pm 18.7 ENE 4 6 1015.0 - - - - - - - - -
25/09:00pm 18.8 SSE 4 5 1015.0 - - - - - - - - -
25/08:30pm 19.3 S 5 7 1015.4 - - - - - - - - -
25/08:00pm 19.6 N 2 5 1015.3 - - - - - - - - -
25/07:30pm 19.7 NNE 6 9 1015.2 - - - - - - - - -
25/07:00pm 19.7 NNE 7 9 1014.5 - - - - - - - - -
25/06:30pm 20.1 NNE 8 11 1014.1 - - - - - - - - -
25/06:00pm 20.1 NE 9 11 1013.3 - - - - - - - - -
25/05:30pm 20.6 NNE 9 12 1013.5 - - - - - - - - -
25/05:00pm 20.2 NNE 8 9 1013.0 - - - - - - - - -
25/04:30pm 20.2 NNE 5 7 1012.8 - - - - - - - - -
25/04:00pm 20.5 N 5 7 1012.5 - - - - - - - - -
25/03:30pm 20.6 NNE 4 5 1012.0 - - - - - - - - -
25/03:00pm 20.6 N 6 7 1011.7 - - - - - - - - -
25/02:30pm 20.7 NNE 3 4 1012.0 - - - - - - - - -
25/02:00pm 20.8 NNE 1 4 1011.5 - - - - - - - - -
25/01:30pm 21.0 NNE 4 6 1011.4 - - - - - - - - -
25/01:00pm 21.3 SW 2 4 1011.5 - - - - - - - - -
25/12:30pm 21.3 SSW 7 10 1011.9 - - - - - - - - -
25/12:00pm 21.8 SSW 11 13 1012.3 - - - - - - - - -
25/11:30am 22.2 S 8 10 1012.5 - - - - - - - - -
25/11:00am 22.6 S 11 13 1012.8 - - - - - - - - -
25/10:30am 22.3 SSW 15 17 1013.3 - - - - - - - - -
25/10:00am 22.3 SSW 17 21 1013.4 - - - - - - - - -
25/09:30am 22.6 SSW 16 19 1013.6 - - - - - - - - -
25/09:00am 22.8 SSW 15 19 1013.2 - - - - - - - - -
25/08:30am 22.8 SW 10 12 1013.3 - - - - - - - - -
25/08:00am 22.6 SW 8 10 1013.0 - - - - - - - - -
25/07:30am 21.8 WSW 7 9 1012.9 - - - - - - - - -
25/07:00am 21.2 W 9 11 1012.5 - - - - - - - - -
25/06:30am 20.6 WSW 8 9 1011.8 - - - - - - - - -
25/06:00am 20.6 WSW 9 13 1012.0 - - - - - - - - -
25/05:30am 21.3 SSW 7 9 1011.4 - - - - - - - - -
25/05:00am 21.4 SSW 10 11 1010.7 - - - - - - - - -
25/04:30am 21.3 SSW 11 13 1010.8 - - - - - - - - -
25/04:00am 21.4 SW 17 22 1010.3 - - - - - - - - -
25/03:30am 21.9 SW 10 13 1010.3 - - - - - - - - -
25/03:00am 21.3 WSW 7 8 1010.1 - - - - - - - - -
25/02:30am 21.1 WSW 4 6 1010.0 - - - - - - - - -
25/02:00am 21.1 SW 7 9 1010.1 - - - - - - - - -
25/01:30am 20.8 SW 8 10 1010.6 - - - - - - - - -
25/01:00am 20.2 W 14 17 1010.8 - - - - - - - - -
25/12:30am 20.6 W 12 14 1010.8 - - - - - - - - -
25/12:00am 20.6 W 20 26 1010.9 - - - - - - - - -
 
Date/Time
EST
Temp
°C
Wind Pressure Rain since
9am
mm
Weather Cloud Vis
km
Sea
Height
m
Swell
Dir  Spd
kts
Gust
kts
hPa Trend Height
m
Period
s
Dir
24/11:41pm 21.3 W 20 30 1011.0 - - - - - - - - -
24/11:38pm 21.7 W 23 30 1011.0 - - - - - - - - -
24/11:35pm 22.3 WNW 26 29 1011.0 - - - - - - - - -
24/11:30pm 23.3 N 23 27 1010.0 - - - - - - - - -
24/11:00pm 23.3 N 21 25 1010.3 - - - - - - - - -
24/10:30pm 23.2 N 21 25 1010.7 - - - - - - - - -
24/10:00pm 23.3 N 21 25 1010.9 - - - - - - - - -
24/09:30pm 23.2 N 22 25 1010.9 - - - - - - - - -
24/09:00pm 23.2 N 21 24 1010.9 - - - - - - - - -
24/08:30pm 23.1 N 21 24 1011.0 - - - - - - - - -
24/08:00pm 23.0 N 23 27 1011.0 - - - - - - - - -
24/07:30pm 23.3 N 23 29 1010.9 - - - - - - - - -
24/07:00pm 23.3 NNW 21 24 1011.0 - - - - - - - - -
24/06:30pm 23.1 N 21 24 1010.7 - - - - - - - - -
24/06:00pm 23.1 N 23 27 1010.3 - - - - - - - - -
24/05:30pm 23.1 N 21 26 1010.1 - - - - - - - - -
24/05:00pm 23.0 NNW 22 27 1009.9 - - - - - - - - -
24/04:30pm 22.6 N 20 24 1009.9 - - - - - - - - -
24/04:00pm 22.4 N 20 24 1010.0 - - - - - - - - -
24/03:30pm 22.2 N 20 24 1009.8 - - - - - - - - -
24/03:00pm 21.6 N 21 25 1009.5 - - - - - - - - -
24/02:55pm 21.4 N 21 25 1009.7 - - - - - - - - -
24/02:30pm 21.5 NW 24 29 1010.5 - - - - - - - - -
24/02:00pm 21.6 NW 25 36 1010.3 - - - - - - - - -
24/01:49pm 21.8 NNW 22 37 1010.3 - - - - - - - - -
24/01:44pm 21.8 NNW 20 25 1010.4 - - - - - - - - -
24/01:30pm 22.4 N 17 27 1010.2 - - - - - - - - -
24/01:00pm 22.5 N 14 17 1010.6 - - - - - - - - -
24/12:30pm 22.7 N 19 24 1010.9 - - - - - - - - -
24/12:00pm 22.6 N 16 21 1011.2 - - - - - - - - -
24/11:30am 22.6 N 20 25 1011.6 - - - - - - - - -
24/11:01am 22.5 N 18 28 1011.6 - - - - - - - - -
24/11:00am 22.5 N 18 24 1011.6 - - - - - - - - -
24/10:30am 22.5 N 18 22 1012.4 - - - - - - - - -
24/10:00am 22.9 N 19 23 1013.2 - - - - - - - - -
24/09:30am 23.3 N 17 20 1013.0 - - - - - - - - -
24/09:00am 23.4 N 18 23 1013.0 - - - - - - - - -
24/08:30am 23.4 N 18 21 1012.8 - - - - - - - - -
24/08:00am 23.2 N 18 23 1012.7 - - - - - - - - -
24/07:30am 23.0 N 20 23 1012.3 - - - - - - - - -
24/07:00am 22.9 N 20 26 1011.8 - - - - - - - - -
24/06:30am 22.9 N 20 24 1011.5 - - - - - - - - -
24/06:00am 22.6 N 19 23 1011.5 - - - - - - - - -
24/05:30am 22.5 N 20 23 1011.3 - - - - - - - - -
24/05:00am 22.5 N 18 22 1011.1 - - - - - - - - -
24/04:30am 22.7 NNE 20 23 1010.8 - - - - - - - - -
24/04:00am 22.7 N 17 21 1011.0 - - - - - - - - -
24/03:30am 22.7 NNE 20 24 1011.1 - - - - - - - - -
24/03:00am 22.7 NNE 17 20 1011.5 - - - - - - - - -
24/02:30am 22.8 NNE 19 22 1011.8 - - - - - - - - -
24/02:00am 22.6 NNE 21 24 1011.8 - - - - - - - - -
24/01:30am 22.8 NNE 19 23 1012.3 - - - - - - - - -
24/01:00am 22.8 NNE 19 22 1012.9 - - - - - - - - -
24/12:30am 22.7 NNE 18 22 1013.3 - - - - - - - - -
24/12:00am 22.6 NE 18 22 1013.5 - - - - - - - - -
 
Date/Time
EST
Temp
°C
Wind Pressure Rain since
9am
mm
Weather Cloud Vis
km
Sea
Height
m
Swell
Dir  Spd
kts
Gust
kts
hPa Trend Height
m
Period
s
Dir
23/11:30pm 22.4 NNE 19 23 1013.8 - - - - - - - - -
23/11:00pm 22.2 NE 19 22 1013.9 - - - - - - - - -
23/10:30pm 22.6 NNE 19 23 1014.4 - - - - - - - - -
23/10:00pm 22.7 NE 16 19 1014.6 - - - - - - - - -
23/09:30pm 22.6 NE 17 19 1014.8 - - - - - - - - -
23/09:00pm 22.7 NE 16 18 1014.9 - - - - - - - - -
23/08:30pm 22.7 NE 15 18 1015.0 - - - - - - - - -

Other Formats:

Comma delimited format used in spreadsheet applications
http://www.bom.gov.au/fwo/IDQ60701/IDQ60701.94394.axf

JavaScript Object Notation format (JSON) in row-major order
http://www.bom.gov.au/fwo/IDQ60701/IDQ60701.94394.json